Ontario, Oregon
Current Conditions -  °F | °C
As of 4:53 PM on Sunday 21 Dec 2014 (Local Time) from KONO Reporting Station
Light Rain Light Rain  
Wind Chill:   Ceiling: 6500
Heat Index:   Visibility: 10mi
Dew Point:   Wind: 6mph
Humidity: 76%   Direction: 330°NNW
Pressure: 30.05"   Gusts: NA
Location:  44.03°N, 116.96°W
Report Text: KONO 212353Z AUTO 33005KT 10SM -RA BKN065 OVC075 08/04 A3005 RMK AO2 SLP185 P0001 60005 T00780039 10100 20078 50022
Loading
Personal Weather Stations






























Interactive Weather Map New forecast layout! Learn more

10-Day Weather Forecast

Advertisements
Track Severe Weather on mobile